Time;durP1;ratioP1;P1;durP2;ratioP2;P2;SDS_P1;SDS_P2;PMS_P1;PMS_P2;Temp;Humidity;BMP_temperature;BMP_pressure;BME280_temperature;BME280_humidity;BME280_pressure;Samples;Min_cycle;Max_cycle;Signal;HPM_P1;HPM_P2
2022/09/18 00:02:22;;;;;;;;;2.33;2.33;;;;;13.90;65.50;100474.88;5078543;28;45468;-71
2022/09/18 00:04:47;;;;;;;;;4.00;3.00;;;;;13.72;66.25;100452.72;5077813;28;45278;-72
2022/09/18 00:07:13;;;;;;;;;3.33;3.00;;;;;13.76;65.72;100455.41;5077874;28;45995;-72
2022/09/18 00:09:38;;;;;;;;;3.00;3.00;;;;;13.83;65.99;100470.41;5077988;28;45502;-72
2022/09/18 00:12:04;;;;;;;;;4.00;3.00;;;;;13.77;66.54;100465.03;5078016;27;45493;-71
2022/09/18 00:14:30;;;;;;;;;2.67;2.67;;;;;13.77;66.22;100472.91;5076201;28;46654;-72
2022/09/18 00:16:55;;;;;;;;;3.00;2.00;;;;;13.77;65.86;100475.53;5077755;28;45321;-72
2022/09/18 00:19:21;;;;;;;;;2.00;2.00;;;;;13.66;66.26;100446.50;5078120;28;45310;-72
2022/09/18 00:21:50;;;;;;;;;3.33;3.33;;;;;13.74;66.68;100471.13;5078057;28;45392;-72
2022/09/18 00:24:17;;;;;;;;;2.00;2.00;;;;;13.67;65.90;100454.41;5077662;28;46502;-71
2022/09/18 00:26:43;;;;;;;;;2.75;2.75;;;;;13.69;65.96;100459.69;5077579;28;45434;-71
2022/09/18 00:29:10;;;;;;;;;3.75;2.00;;;;;13.79;66.03;100472.09;5076263;28;45357;-72
2022/09/18 00:31:36;;;;;;;;;2.67;2.67;;;;;13.76;65.47;100450.16;5093248;27;45264;-72
2022/09/18 00:34:06;;;;;;;;;2.33;2.33;;;;;13.75;65.85;100443.13;5077382;28;45428;-72
2022/09/18 00:36:32;;;;;;;;;3.00;3.00;;;;;13.84;66.16;100464.28;5077351;28;45598;-72
2022/09/18 00:38:59;;;;;;;;;3.00;3.00;;;;;13.82;65.67;100461.63;5077577;28;45463;-72
2022/09/18 00:41:30;;;;;;;;;2.00;2.00;;;;;13.72;65.72;100441.34;5078039;28;45462;-72
2022/09/18 00:44:34;;;;;;;;;3.67;3.67;;;;;13.82;65.99;100455.50;5077156;28;46706;-69
2022/09/18 00:47:02;;;;;;;;;3.00;3.00;;;;;13.81;66.38;100459.88;5092847;27;45506;-72
2022/09/18 00:49:29;;;;;;;;;3.00;3.00;;;;;13.75;66.16;100448.38;5077314;27;45362;-72
2022/09/18 00:51:58;;;;;;;;;4.00;2.67;;;;;13.70;66.11;100446.56;5077770;27;45175;-72
2022/09/18 00:54:37;;;;;;;;;2.00;2.00;;;;;13.84;66.50;100459.91;5076061;28;45508;-72
2022/09/18 00:57:26;;;;;;;;;3.67;3.00;;;;;13.24;66.76;100366.22;5077308;28;45400;-72
2022/09/18 00:59:53;;;;;;;;;3.67;3.67;;;;;13.71;66.71;100445.72;5077647;28;45383;-72
2022/09/18 01:02:19;;;;;;;;;4.00;3.00;;;;;13.75;66.98;100456.25;5076000;28;45509;-72
2022/09/18 01:04:46;;;;;;;;;3.00;3.00;;;;;13.70;66.76;100446.56;5079377;28;46186;-72
2022/09/18 01:07:45;;;;;;;;;3.00;3.00;;;;;13.63;66.43;100423.72;5080886;27;45439;-72
2022/09/18 01:10:16;;;;;;;;;3.00;3.00;;;;;13.69;66.60;100439.56;5080434;27;45511;-72
2022/09/18 01:12:52;;;;;;;;;4.00;3.00;;;;;13.69;66.73;100438.69;5080857;28;45329;-72
2022/09/18 01:15:56;;;;;;;;;3.00;3.00;;;;;13.63;66.86;100428.09;5080588;27;45248;-72
2022/09/18 01:18:40;;;;;;;;;2.33;2.00;;;;;13.72;66.94;100439.59;5080483;27;45287;-72
2022/09/18 01:21:13;;;;;;;;;3.00;3.00;;;;;13.68;67.03;100427.28;5080704;28;45302;-72
2022/09/18 01:24:10;;;;;;;;;2.00;2.00;;;;;13.74;67.13;100426.50;5080596;28;45242;-72
2022/09/18 01:26:59;;;;;;;;;3.67;3.33;;;;;13.72;67.46;100423.84;5080092;27;46741;-72
2022/09/18 01:29:34;;;;;;;;;3.00;3.00;;;;;13.59;66.71;100400.00;5080669;28;45210;-71
2022/09/18 01:32:26;;;;;;;;;3.33;3.00;;;;;13.71;66.67;100432.59;5080417;28;45503;-72
2022/09/18 01:35:13;;;;;;;;;3.00;3.00;;;;;13.53;66.66;100409.56;5080404;27;45504;-71
2022/09/18 01:38:23;;;;;;;;;3.00;3.00;;;;;13.64;66.77;100428.09;5080165;28;45347;-71
2022/09/18 01:41:01;;;;;;;;;5.00;4.00;;;;;13.63;66.22;100425.47;5057445;28;45563;-72
2022/09/18 01:43:29;;;;;;;;;3.67;3.67;;;;;13.58;66.65;100420.13;5079048;28;45494;-72
2022/09/18 01:46:03;;;;;;;;;3.00;3.00;;;;;13.44;67.14;100411.16;5080581;28;45456;-71
2022/09/18 01:48:38;;;;;;;;;2.33;2.00;;;;;13.38;66.68;100408.44;5080258;28;45348;-72
2022/09/18 01:51:13;;;;;;;;;3.67;3.00;;;;;13.39;66.84;100411.09;5080038;27;45200;-72
2022/09/18 01:53:44;;;;;;;;;3.00;2.00;;;;;13.43;66.92;100420.78;5080203;28;45278;-72
2022/09/18 01:56:26;;;;;;;;;3.00;2.00;;;;;13.35;66.89;100405.75;5080303;27;45326;-72
2022/09/18 01:58:56;;;;;;;;;2.00;2.00;;;;;13.38;66.89;100397.94;5079825;27;45435;-72
2022/09/18 02:01:28;;;;;;;;;3.00;2.00;;;;;13.39;67.15;100408.47;5079837;28;45388;-72
2022/09/18 02:03:59;;;;;;;;;2.00;1.00;;;;;13.43;67.32;100418.16;5079963;28;45300;-72
2022/09/18 02:06:33;;;;;;;;;2.00;2.00;;;;;13.32;67.82;100414.47;5080096;28;45397;-72
2022/09/18 02:09:01;;;;;;;;;3.00;3.00;;;;;13.31;67.69;100404.84;5080032;27;46116;-72
2022/09/18 02:11:27;;;;;;;;;3.00;3.00;;;;;13.30;66.97;100398.69;5080042;28;45424;-71
2022/09/18 02:14:16;;;;;;;;;2.00;2.00;;;;;13.25;67.67;100399.44;5079701;28;45317;-72
2022/09/18 02:16:45;;;;;;;;;4.00;3.00;;;;;13.22;68.08;100418.66;5078980;28;45453;-72
2022/09/18 02:19:18;;;;;;;;;3.00;3.00;;;;;13.24;68.03;100416.94;5079515;27;45266;-72
2022/09/18 02:21:47;;;;;;;;;2.00;2.00;;;;;12.99;67.44;100373.69;5079690;28;45455;-72
2022/09/18 02:24:18;;;;;;;;;2.33;2.33;;;;;13.08;67.06;100386.06;5079289;28;45570;-72
2022/09/18 02:26:47;;;;;;;;;2.67;2.67;;;;;13.26;66.78;100412.59;5079617;28;45336;-72
2022/09/18 02:29:16;;;;;;;;;2.00;2.00;;;;;13.13;66.61;100395.78;5079295;27;46377;-72
2022/09/18 02:31:42;;;;;;;;;2.00;2.00;;;;;13.13;67.37;100403.66;5077735;27;45519;-72
2022/09/18 02:34:09;;;;;;;;;2.00;1.33;;;;;13.17;66.78;100417.69;5079473;28;45412;-72
2022/09/18 02:36:37;;;;;;;;;2.67;2.67;;;;;13.10;66.97;100413.19;5079703;28;45421;-71
2022/09/18 02:39:24;;;;;;;;;2.00;2.00;;;;;13.02;66.96;100406.94;5079249;28;45441;-71
2022/09/18 02:42:20;;;;;;;;;2.00;2.00;;;;;12.99;67.18;100406.88;5079105;28;45459;-72
2022/09/18 02:45:10;;;;;;;;;1.00;0.00;;;;;12.82;68.05;100402.22;5079280;27;45250;-71
2022/09/18 02:47:58;;;;;;;;;3.25;3.00;;;;;12.69;68.05;100408.97;5079063;28;45234;-72
2022/09/18 02:50:41;;;;;;;;;4.00;3.50;;;;;12.59;68.99;100406.13;5078971;28;45471;-72
2022/09/18 02:53:15;;;;;;;;;2.67;2.00;;;;;12.50;68.72;100401.59;5078882;28;45546;-71
2022/09/18 02:55:48;;;;;;;;;2.00;2.00;;;;;12.46;69.25;100403.25;5079157;28;45324;-72
2022/09/18 02:58:52;;;;;;;;;2.00;2.00;;;;;12.47;68.99;100406.75;5079127;28;45585;-71
2022/09/18 03:01:20;;;;;;;;;2.00;2.00;;;;;12.46;68.70;100399.78;5078688;27;45347;-71
2022/09/18 03:03:47;;;;;;;;;3.00;3.00;;;;;12.52;68.71;100405.13;5078895;28;45404;-71
2022/09/18 03:06:12;;;;;;;;;2.00;2.00;;;;;12.45;68.70;100404.09;5078937;28;45439;-71
2022/09/18 03:08:38;;;;;;;;;2.00;2.00;;;;;12.31;69.21;100379.38;5079034;28;45499;-72
2022/09/18 03:11:04;;;;;;;;;2.00;2.00;;;;;12.24;69.10;100364.41;5079151;28;46666;-72
2022/09/18 03:13:29;;;;;;;;;3.75;3.75;;;;;12.38;68.63;100386.50;5079045;28;45331;-72
2022/09/18 03:15:55;;;;;;;;;1.00;1.00;;;;;12.32;68.39;100382.03;5078809;28;45266;-71
2022/09/18 03:18:21;;;;;;;;;2.50;2.25;;;;;12.33;69.28;100389.06;5078950;28;45478;-72
2022/09/18 03:20:46;;;;;;;;;2.00;2.00;;;;;12.04;68.93;100367.50;5078619;28;46031;-72
2022/09/18 03:23:12;;;;;;;;;1.00;1.00;;;;;12.20;69.22;100396.63;5078505;28;45422;-72
2022/09/18 03:25:37;;;;;;;;;2.25;2.00;;;;;12.09;68.75;100380.66;5078763;28;45329;-72
2022/09/18 03:28:04;;;;;;;;;2.00;2.00;;;;;12.24;68.82;100401.94;5079206;28;45213;-72
2022/09/18 03:30:30;;;;;;;;;3.00;3.00;;;;;12.21;69.37;100383.53;5078322;28;45349;-71
2022/09/18 03:32:55;;;;;;;;;2.00;2.00;;;;;12.16;69.49;100379.97;5078344;28;45388;-72
2022/09/18 03:35:21;;;;;;;;;2.00;2.00;;;;;12.10;69.02;100378.09;5078239;28;45381;-71
2022/09/18 03:37:47;;;;;;;;;2.00;2.00;;;;;12.09;69.39;100368.44;5078478;28;45413;-71
2022/09/18 03:40:14;;;;;;;;;4.00;3.00;;;;;12.13;68.75;100369.41;5078302;28;46408;-71
2022/09/18 03:42:43;;;;;;;;;3.00;2.25;;;;;12.23;68.77;100387.06;5078270;27;45572;-71
2022/09/18 03:45:10;;;;;;;;;3.75;3.75;;;;;11.97;68.55;100352.50;5078378;28;45219;-71
2022/09/18 03:47:36;;;;;;;;;2.00;2.00;;;;;11.92;68.58;100365.50;5079192;27;45964;-71
2022/09/18 03:50:02;;;;;;;;;2.00;2.00;;;;;12.09;68.42;100397.25;5078440;28;46168;-71
2022/09/18 03:52:28;;;;;;;;;1.00;1.00;;;;;12.05;68.08;100387.56;5078051;28;45397;-71
2022/09/18 03:54:54;;;;;;;;;2.75;2.75;;;;;12.08;68.04;100392.88;5078059;27;45468;-71
2022/09/18 03:57:20;;;;;;;;;1.67;1.67;;;;;12.06;68.06;100378.00;5078240;28;45309;-72
2022/09/18 03:59:45;;;;;;;;;3.00;2.00;;;;;11.87;68.08;100353.13;5078082;28;45546;-71
2022/09/18 04:02:11;;;;;;;;;3.00;2.75;;;;;12.05;67.88;100384.94;5078033;27;45522;-71
2022/09/18 04:04:37;;;;;;;;;2.00;2.00;;;;;11.98;67.68;100364.75;5078396;28;45401;-68
2022/09/18 04:07:02;;;;;;;;;2.00;2.00;;;;;11.90;67.72;100361.97;5078453;28;45270;-71
2022/09/18 04:09:28;;;;;;;;;1.00;1.00;;;;;11.96;67.61;100362.91;5077755;27;45389;-71
2022/09/18 04:11:54;;;;;;;;;1.67;1.67;;;;;11.84;67.52;100355.69;5077818;28;45471;-71
2022/09/18 04:14:21;;;;;;;;;2.33;2.00;;;;;11.91;68.04;100376.81;5077683;27;45219;-71
2022/09/18 04:16:47;;;;;;;;;1.25;1.25;;;;;11.84;67.82;100368.78;5078131;28;45306;-71
2022/09/18 04:19:13;;;;;;;;;2.50;1.75;;;;;11.85;68.58;100379.25;5077692;28;45332;-71
2022/09/18 04:21:38;;;;;;;;;4.00;3.00;;;;;11.87;68.48;100393.25;5077570;28;45473;-70
2022/09/18 04:24:05;;;;;;;;;2.00;1.00;;;;;11.79;68.56;100381.72;5078270;28;45232;-70
2022/09/18 04:26:33;;;;;;;;;2.00;2.00;;;;;11.74;68.87;100380.75;5077893;27;45560;-72
2022/09/18 04:28:58;;;;;;;;;3.00;3.00;;;;;11.75;68.75;100390.38;5077570;28;45354;-71
2022/09/18 04:31:24;;;;;;;;;2.00;2.00;;;;;11.54;68.98;100362.00;5077260;28;45317;-71
2022/09/18 04:33:49;;;;;;;;;1.25;1.25;;;;;11.59;69.52;100396.09;5077752;28;45315;-72
2022/09/18 04:36:15;;;;;;;;;2.00;2.00;;;;;11.58;69.28;100389.09;5076345;28;45234;-71
2022/09/18 04:38:40;;;;;;;;;2.00;2.00;;;;;11.55;69.21;100384.69;5076853;28;45486;-72
2022/09/18 04:41:06;;;;;;;;;0.00;0.00;;;;;11.63;68.89;100390.97;5077686;28;45317;-71
2022/09/18 04:43:32;;;;;;;;;2.00;2.00;;;;;11.54;68.54;100373.34;5076133;27;45196;-71
2022/09/18 04:45:57;;;;;;;;;2.00;2.00;;;;;11.59;68.67;100376.06;5077606;27;45441;-71
2022/09/18 04:48:23;;;;;;;;;2.00;2.00;;;;;11.68;68.74;100389.34;5077398;28;46390;-72
2022/09/18 04:50:49;;;;;;;;;2.00;2.00;;;;;11.69;68.48;100388.50;5075858;28;45471;-71
2022/09/18 04:53:14;;;;;;;;;2.00;2.00;;;;;11.70;69.01;100392.91;5077623;28;45449;-71
2022/09/18 04:55:43;;;;;;;;;2.75;2.00;;;;;11.48;69.07;100359.22;5077550;28;45346;-70
2022/09/18 04:58:09;;;;;;;;;2.00;1.00;;;;;11.45;69.11;100367.00;5077524;27;45373;-71
2022/09/18 05:00:37;;;;;;;;;2.25;2.25;;;;;11.61;69.06;100390.06;5077522;28;45229;-72
2022/09/18 05:03:06;;;;;;;;;2.00;2.00;;;;;11.61;68.65;100386.56;5077212;28;45277;-71
2022/09/18 05:05:31;;;;;;;;;1.50;1.50;;;;;11.63;68.63;100392.72;5077476;28;45421;-71
2022/09/18 05:08:01;;;;;;;;;1.25;1.25;;;;;11.68;68.91;100399.81;5077119;28;45423;-71
2022/09/18 05:10:27;;;;;;;;;1.50;1.50;;;;;11.70;68.64;100403.34;5077150;28;45376;-71
2022/09/18 05:12:53;;;;;;;;;3.00;2.00;;;;;11.66;68.96;100400.66;5077194;28;45423;-70
2022/09/18 05:15:19;;;;;;;;;2.00;2.00;;;;;11.62;68.82;100397.06;5077188;28;45319;-70
2022/09/18 05:17:45;;;;;;;;;3.00;2.00;;;;;11.51;69.26;100394.19;5076882;28;45568;-71
2022/09/18 05:20:11;;;;;;;;;2.00;2.00;;;;;11.49;69.30;100393.25;5076836;27;45540;-70
2022/09/18 05:22:37;;;;;;;;;2.00;2.00;;;;;11.29;69.63;100371.88;5077200;28;45498;-69
2022/09/18 05:25:03;;;;;;;;;0.00;0.00;;;;;11.29;69.87;100386.69;5077345;28;45499;-71
2022/09/18 05:27:29;;;;;;;;;2.00;2.00;;;;;11.35;69.55;100398.16;5092495;27;46823;-71
2022/09/18 05:29:55;;;;;;;;;3.00;2.00;;;;;11.30;69.26;100377.97;5076688;28;45406;-71
2022/09/18 05:32:20;;;;;;;;;2.75;2.00;;;;;11.35;69.08;100378.97;5076721;28;45433;-71
2022/09/18 05:34:48;;;;;;;;;1.33;1.00;;;;;11.38;69.10;100384.28;5077175;28;45464;-72
2022/09/18 05:37:15;;;;;;;;;2.00;2.00;;;;;11.49;69.09;100408.97;5075361;28;45536;-71
2022/09/18 05:39:42;;;;;;;;;1.00;1.00;;;;;11.44;69.00;100399.22;5077059;28;45305;-71
2022/09/18 05:42:08;;;;;;;;;1.00;1.00;;;;;11.38;69.94;100404.31;5077112;28;45502;-71
2022/09/18 05:44:33;;;;;;;;;1.25;1.25;;;;;11.28;70.08;100405.81;5076909;28;45172;-71
2022/09/18 05:46:59;;;;;;;;;5.25;5.00;;;;;11.34;69.71;100412.09;5075028;28;46237;-71
2022/09/18 05:49:24;;;;;;;;;3.00;2.00;;;;;11.26;69.79;100391.81;5076691;27;45165;-71
2022/09/18 05:51:50;;;;;;;;;2.00;1.75;;;;;11.36;69.51;100404.31;5079224;28;45200;-70
2022/09/18 05:54:15;;;;;;;;;2.00;2.00;;;;;11.40;69.40;100410.47;5080326;28;45346;-70
2022/09/18 05:56:41;;;;;;;;;2.00;2.00;;;;;11.38;69.72;100401.69;5080197;28;45496;-71
2022/09/18 05:59:07;;;;;;;;;4.00;2.00;;;;;11.38;69.72;100401.69;5080021;28;45413;-71
2022/09/18 06:01:32;;;;;;;;;2.00;2.00;;;;;11.41;69.21;100413.13;5080044;28;45510;-71
2022/09/18 06:03:58;;;;;;;;;2.75;1.50;;;;;11.47;69.52;100422.84;5080229;28;45310;-71
2022/09/18 06:06:27;;;;;;;;;3.00;2.00;;;;;11.34;70.02;100424.31;5079756;28;45443;-72
2022/09/18 06:08:52;;;;;;;;;2.00;2.00;;;;;11.16;70.37;100385.50;5079919;28;45490;-71
2022/09/18 06:11:18;;;;;;;;;2.00;2.00;;;;;11.26;69.66;100403.19;5079691;28;45245;-71
2022/09/18 06:13:47;;;;;;;;;3.75;2.50;;;;;11.31;69.43;100398.06;5080239;28;45370;-69
2022/09/18 06:16:14;;;;;;;;;3.00;3.00;;;;;11.41;69.15;100396.56;5079874;28;45436;-69
2022/09/18 06:18:39;;;;;;;;;3.00;2.00;;;;;11.66;68.71;100429.44;5079743;28;45344;-71
2022/09/18 06:21:05;;;;;;;;;3.75;2.50;;;;;11.69;68.39;100419.91;5079375;28;45496;-71
2022/09/18 06:23:30;;;;;;;;;2.75;2.75;;;;;11.83;67.99;100432.41;5079877;28;45267;-71
2022/09/18 06:26:04;;;;;;;;;2.00;2.00;;;;;11.80;68.21;100420.16;5077915;28;45489;-71
2022/09/18 06:28:31;;;;;;;;;3.25;2.00;;;;;11.90;67.76;100421.28;5079365;27;45499;-70
2022/09/18 06:30:57;;;;;;;;;2.00;2.00;;;;;11.97;67.57;100419.69;5079349;28;45392;-71
2022/09/18 06:33:23;;;;;;;;;1.00;1.00;;;;;12.10;67.11;100419.97;5079673;28;45317;-71
2022/09/18 06:35:49;;;;;;;;;2.00;2.00;;;;;12.20;66.51;100426.31;5077861;28;47633;-71
2022/09/18 06:38:15;;;;;;;;;1.25;1.25;;;;;12.26;66.59;100415.97;5079747;28;45268;-71
2022/09/18 06:40:51;;;;;;;;;3.00;2.00;;;;;12.56;66.17;100442.75;5078272;28;45336;-71
2022/09/18 06:43:17;;;;;;;;;2.00;2.00;;;;;12.62;65.88;100422.78;5079433;28;45585;-72
2022/09/18 06:45:49;;;;;;;;;3.75;3.00;;;;;12.93;65.28;100440.00;5079338;28;46107;-71
2022/09/18 06:48:14;;;;;;;;;2.00;2.00;;;;;13.10;65.26;100429.81;5079618;27;45328;-70
2022/09/18 06:50:40;;;;;;;;;3.00;3.00;;;;;13.13;64.61;100406.25;5079097;28;45180;-71
2022/09/18 06:53:06;;;;;;;;;2.33;2.00;;;;;13.35;63.08;100425.03;5077759;28;45551;-71
2022/09/18 06:55:31;;;;;;;;;2.00;2.00;;;;;13.49;63.31;100422.63;5077601;28;45500;-71
2022/09/18 06:57:58;;;;;;;;;3.00;2.67;;;;;13.82;62.95;100437.13;5079080;27;45472;-71
2022/09/18 07:00:25;;;;;;;;;3.00;2.33;;;;;14.03;62.10;100431.31;5079099;27;45255;-71
2022/09/18 07:02:59;;;;;;;;;2.67;2.67;;;;;14.31;61.96;100432.56;5078734;28;45461;-71
2022/09/18 07:05:27;;;;;;;;;1.67;1.67;;;;;14.65;60.81;100433.00;5078848;28;46235;-71
2022/09/18 07:07:52;;;;;;;;;3.00;3.00;;;;;14.79;59.68;100418.25;5078782;27;45408;-71
2022/09/18 07:10:18;;;;;;;;;2.00;2.00;;;;;15.11;59.42;100417.69;5078690;27;45242;-72
2022/09/18 07:12:47;;;;;;;;;2.00;2.00;;;;;15.60;58.57;100440.94;5079402;27;45295;-72
2022/09/18 07:15:15;;;;;;;;;4.00;3.33;;;;;15.44;56.95;100342.53;5079222;28;46395;-71
2022/09/18 07:17:41;;;;;;;;;3.00;2.67;;;;;16.45;56.07;100435.34;5078588;28;45329;-72
2022/09/18 07:20:07;;;;;;;;;2.00;2.00;;;;;16.83;54.82;100425.78;5077324;28;45415;-70
2022/09/18 07:22:33;;;;;;;;;2.67;2.67;;;;;17.20;54.17;100424.09;5077616;28;45615;-72
2022/09/18 07:24:58;;;;;;;;;1.33;1.33;;;;;17.59;52.48;100419.72;5076906;28;47814;-70
2022/09/18 07:27:24;;;;;;;;;2.00;2.00;;;;;17.99;52.01;100424.09;5078343;28;45425;-70
2022/09/18 07:29:49;;;;;;;;;2.00;2.00;;;;;18.25;51.20;100398.44;5078540;28;45244;-71
2022/09/18 07:32:15;;;;;;;;;4.33;3.00;;;;;18.71;50.03;100410.56;5077582;28;45555;-71
2022/09/18 07:34:40;;;;;;;;;2.67;2.67;;;;;19.11;50.38;100404.19;5078168;28;46574;-71
2022/09/18 07:37:06;;;;;;;;;2.67;2.67;;;;;19.68;48.31;100421.34;5077930;28;45400;-71
2022/09/18 07:39:31;;;;;;;;;3.67;2.00;;;;;20.04;46.69;100407.78;5078304;28;45575;-71
2022/09/18 07:41:57;;;;;;;;;3.67;2.67;;;;;20.43;46.40;100398.47;5078580;28;45322;-71
2022/09/18 07:44:22;;;;;;;;;3.00;2.00;;;;;20.79;44.88;100427.19;5077859;28;46595;-72
2022/09/18 07:46:49;;;;;;;;;2.00;2.00;;;;;20.98;45.16;100411.88;5076843;28;45262;-71
2022/09/18 07:49:15;;;;;;;;;2.33;2.00;;;;;20.89;43.48;100398.75;5078045;28;45317;-72
2022/09/18 07:51:40;;;;;;;;;2.00;2.00;;;;;21.16;43.37;100432.84;5077896;28;45281;-71
2022/09/18 07:54:06;;;;;;;;;2.00;2.00;;;;;21.30;43.51;100429.97;5077671;28;45334;-71
2022/09/18 07:56:31;;;;;;;;;2.00;2.00;;;;;21.92;42.71;100426.28;5076618;28;45500;-71
2022/09/18 07:58:57;;;;;;;;;3.00;3.00;;;;;22.59;41.95;100416.13;5076663;28;45517;-72
2022/09/18 08:01:24;;;;;;;;;2.00;2.00;;;;;23.33;39.91;100427.75;5077152;28;45662;-71
2022/09/18 08:03:49;;;;;;;;;3.00;3.00;;;;;23.89;37.69;100412.09;5077767;28;46588;-72
2022/09/18 08:06:16;;;;;;;;;3.33;3.00;;;;;24.87;36.99;100428.88;5075971;28;45442;-72
2022/09/18 08:08:41;;;;;;;;;2.00;2.00;;;;;25.70;35.53;100419.06;5077575;28;45302;-72
2022/09/18 08:11:07;;;;;;;;;3.67;2.00;;;;;26.21;33.90;100395.00;5077826;28;45303;-71
2022/09/18 08:13:32;;;;;;;;;2.00;2.00;;;;;27.16;32.06;100410.94;5076504;28;46504;-72
2022/09/18 08:15:58;;;;;;;;;2.33;2.00;;;;;28.23;30.62;100401.03;5077613;28;45337;-72
2022/09/18 08:18:23;;;;;;;;;2.33;2.33;;;;;29.06;30.00;100407.91;5076336;28;45532;-72
2022/09/18 08:20:49;;;;;;;;;1.00;1.00;;;;;30.03;30.37;100403.00;5078216;28;45308;-72
2022/09/18 08:23:15;;;;;;;;;2.00;1.67;;;;;31.12;27.86;100416.75;5077159;28;45560;-73
2022/09/18 08:25:41;;;;;;;;;2.00;2.00;;;;;31.93;25.99;100407.47;5077244;27;45446;-72
2022/09/18 08:28:06;;;;;;;;;2.00;2.00;;;;;32.55;24.76;100412.69;5077406;28;45543;-72
2022/09/18 08:30:33;;;;;;;;;2.00;2.00;;;;;33.27;25.36;100417.94;5075766;28;45642;-73
2022/09/18 08:33:06;;;;;;;;;2.33;1.33;;;;;33.96;23.51;100417.78;5077108;27;45420;-73
2022/09/18 08:35:33;;;;;;;;;3.00;3.00;;;;;34.34;23.51;100408.78;5092583;27;45305;-72
2022/09/18 08:37:59;;;;;;;;;1.00;1.00;;;;;34.80;23.45;100427.19;5077250;28;45309;-71
2022/09/18 08:41:08;;;;;;;;;0.67;0.67;;;;;35.42;22.52;100424.34;5077393;27;45272;-73
2022/09/18 08:43:42;;;;;;;;;1.00;1.00;;;;;35.45;21.66;100424.13;5048665;27;46091;-71
2022/09/18 08:46:13;;;;;;;;;0.33;0.33;;;;;35.54;21.11;100410.81;5077015;28;45404;-71
2022/09/18 08:48:54;;;;;;;;;2.00;2.00;;;;;35.81;21.60;100413.25;5077161;27;45328;-70
2022/09/18 08:51:33;;;;;;;;;1.00;1.00;;;;;36.01;21.23;100422.56;5077763;28;45246;-72
2022/09/18 08:54:39;;;;;;;;;1.00;1.00;;;;;36.33;22.83;100421.88;5076655;28;45509;-72
2022/09/18 08:57:27;;;;;;;;;1.67;1.67;;;;;36.84;21.60;100421.38;5075820;27;45531;-71
2022/09/18 09:00:09;;;;;;;;;0.67;0.67;;;;;36.75;21.68;100405.78;5072820;28;45530;-73
2022/09/18 09:02:38;;;;;;;;;2.33;1.67;;;;;36.79;21.42;100419.03;5075303;28;45795;-72
2022/09/18 09:05:17;;;;;;;;;1.67;1.00;;;;;36.45;21.63;100423.63;5075045;28;46357;-73
2022/09/18 09:07:59;;;;;;;;;1.67;1.00;;;;;36.39;20.94;100424.09;5075260;28;45570;-73
2022/09/18 09:10:42;;;;;;;;;1.00;0.67;;;;;35.79;21.32;100417.94;5076704;28;45338;-72
2022/09/18 09:13:45;;;;;;;;;1.67;1.67;;;;;35.49;21.81;100419.31;5076542;28;45421;-72
2022/09/18 09:16:17;;;;;;;;;1.33;1.33;;;;;35.00;22.07;100432.00;5074525;27;45536;-72
2022/09/18 09:18:59;;;;;;;;;2.00;2.00;;;;;34.18;22.37;100428.88;5074632;28;45346;-72
2022/09/18 09:22:09;;;;;;;;;1.33;1.33;;;;;34.14;23.67;100429.16;5076801;27;45449;-73
2022/09/18 09:25:07;;;;;;;;;1.00;1.00;;;;;33.99;23.68;100426.56;5064680;28;45323;-72
2022/09/18 09:28:08;;;;;;;;;1.67;1.67;;;;;34.07;23.56;100418.75;5058735;28;46594;-71
2022/09/18 09:30:35;;;;;;;;;1.67;1.67;;;;;34.24;22.47;100432.97;5066744;28;45506;-72
2022/09/18 09:33:19;;;;;;;;;1.00;1.00;;;;;34.23;22.36;100432.13;5079818;28;45301;-72
2022/09/18 09:35:52;;;;;;;;;1.67;1.67;;;;;34.38;22.62;100432.88;5080103;28;45488;-73
2022/09/18 09:38:36;;;;;;;;;1.67;1.67;;;;;34.48;23.48;100435.81;5079346;27;45645;-72
2022/09/18 09:41:29;;;;;;;;;1.67;1.67;;;;;34.59;22.82;100435.88;5095831;27;45362;-73
2022/09/18 09:44:28;;;;;;;;;0.00;0.00;;;;;34.02;23.24;100439.91;5080191;28;45370;-72
2022/09/18 09:47:12;;;;;;;;;2.67;2.67;;;;;34.18;24.46;100431.59;5080104;28;45242;-71
2022/09/18 09:50:07;;;;;;;;;3.00;2.67;;;;;34.44;23.90;100418.00;5078229;28;48110;-72
2022/09/18 09:52:36;;;;;;;;;4.67;3.67;;;;;34.74;23.45;100422.19;5079506;28;45502;-72
2022/09/18 09:55:23;;;;;;;;;2.00;2.00;;;;;34.86;23.67;100429.47;5079832;27;45468;-71
2022/09/18 09:58:24;;;;;;;;;2.00;2.00;;;;;34.69;23.14;100429.81;5080004;28;45288;-72
2022/09/18 10:01:27;;;;;;;;;1.67;1.33;;;;;34.38;24.21;100421.16;5079329;27;45269;-73
2022/09/18 10:04:02;;;;;;;;;2.33;2.33;;;;;33.36;24.84;100430.84;5075603;28;45405;-72
2022/09/18 10:06:46;;;;;;;;;2.33;2.33;;;;;33.06;25.27;100412.06;5078077;28;45508;-72
2022/09/18 10:09:11;;;;;;;;;2.00;2.00;;;;;33.47;25.35;100414.75;5079507;27;45335;-72
2022/09/18 10:11:43;;;;;;;;;2.67;2.67;;;;;33.51;25.70;100398.31;5078376;28;45389;-72
2022/09/18 10:14:16;;;;;;;;;5.33;3.67;;;;;33.73;25.32;100408.56;5076832;28;45635;-71
2022/09/18 10:16:51;;;;;;;;;2.00;2.00;;;;;33.58;25.74;100408.59;5079225;28;45242;-72
2022/09/18 10:19:19;;;;;;;;;2.00;2.00;;;;;33.32;25.46;100409.50;5079385;27;45376;-72
2022/09/18 10:21:48;;;;;;;;;2.67;2.67;;;;;33.33;26.29;100406.69;5077632;28;47648;-72
2022/09/18 10:24:32;;;;;;;;;4.67;3.67;;;;;33.46;26.36;100398.59;5079003;28;45249;-72
2022/09/18 10:27:08;;;;;;;;;2.33;2.33;;;;;33.41;26.37;100388.09;5079611;28;45460;-72
2022/09/18 10:29:34;;;;;;;;;2.00;2.00;;;;;33.36;26.61;100392.06;5079175;28;45345;-72
2022/09/18 10:32:00;;;;;;;;;8.33;7.67;;;;;33.33;26.63;100386.88;5077479;28;45588;-71
2022/09/18 10:34:40;;;;;;;;;3.00;3.00;;;;;33.32;26.91;100393.25;5079321;28;45414;-73
2022/09/18 10:37:13;;;;;;;;;2.67;2.67;;;;;32.87;26.57;100382.69;5078496;27;45357;-73
2022/09/18 10:39:48;;;;;;;;;20.00;19.33;;;;;32.47;28.00;100366.28;5079077;28;45306;-72
2022/09/18 10:42:18;;;;;;;;;4.67;4.67;;;;;32.67;27.43;100378.59;5078737;28;45299;-72
2022/09/18 10:44:59;;;;;;;;;3.33;3.00;;;;;32.53;27.46;100379.44;5078650;28;45282;-73
2022/09/18 10:47:26;;;;;;;;;2.67;2.67;;;;;32.14;28.09;100372.03;5079319;28;45865;-72
2022/09/18 10:49:58;;;;;;;;;2.67;2.67;;;;;31.98;28.29;100364.00;5077462;28;45344;-72
2022/09/18 10:52:37;;;;;;;;;2.33;2.33;;;;;31.94;28.84;100370.56;5078715;27;45348;-72
2022/09/18 10:55:08;;;;;;;;;3.67;3.00;;;;;31.80;29.23;100371.41;5078754;27;45428;-72
2022/09/18 10:57:48;;;;;;;;;3.00;3.00;;;;;31.68;29.65;100357.69;5078425;27;45499;-72
2022/09/18 11:00:20;;;;;;;;;3.00;3.00;;;;;31.55;29.18;100363.91;5078809;28;45345;-73
2022/09/18 11:02:54;;;;;;;;;3.67;3.00;;;;;31.29;29.48;100369.00;5078386;28;46480;-72
2022/09/18 11:05:25;;;;;;;;;2.00;2.00;;;;;31.07;29.93;100350.53;5078554;27;45471;-72
2022/09/18 11:07:55;;;;;;;;;3.33;3.33;;;;;30.81;30.82;100347.47;5077332;28;45590;-72
2022/09/18 11:10:23;;;;;;;;;6.33;5.00;;;;;30.80;30.43;100348.44;5111692;27;45645;-73
2022/09/18 11:12:53;;;;;;;;;3.00;3.00;;;;;30.76;30.09;100359.47;5078555;28;45615;-72
2022/09/18 11:15:22;;;;;;;;;3.00;3.00;;;;;30.63;29.39;100340.47;5077332;28;45529;-72
2022/09/18 11:17:51;;;;;;;;;4.33;4.00;;;;;30.56;28.42;100357.91;5078708;28;45384;-73
2022/09/18 11:20:23;;;;;;;;;4.33;4.33;;;;;30.35;28.98;100354.63;5078741;28;45274;-73
2022/09/18 11:22:49;;;;;;;;;5.00;4.00;;;;;30.10;29.15;100291.25;5078061;28;45513;-73
2022/09/18 11:25:25;;;;;;;;;4.67;4.67;;;;;30.48;28.47;100345.75;5076806;28;45606;-71
2022/09/18 11:27:53;;;;;;;;;4.33;4.00;;;;;30.34;28.96;100342.94;5078462;28;45361;-72
2022/09/18 11:30:25;;;;;;;;;4.33;4.00;;;;;30.19;29.30;100344.66;5078071;28;45583;-73
2022/09/18 11:33:13;;;;;;;;;2.67;2.67;;;;;29.95;29.04;100333.41;5077522;28;45283;-72
2022/09/18 11:35:45;;;;;;;;;4.33;4.00;;;;;29.54;28.96;100315.78;5077331;28;45488;-72
2022/09/18 11:38:15;;;;;;;;;4.00;3.00;;;;;29.41;28.92;100324.59;5078097;28;45433;-72
2022/09/18 11:40:49;;;;;;;;;3.00;3.00;;;;;29.27;29.92;100345.00;5078458;28;45281;-73
2022/09/18 11:43:21;;;;;;;;;3.33;3.33;;;;;28.91;29.86;100339.63;5076287;28;46807;-72
2022/09/18 11:45:56;;;;;;;;;3.00;3.00;;;;;28.63;30.55;100343.66;5076228;28;45412;-73